createdAt,value
2023-03-24T00:01:31.181Z,99772.53
2023-03-24T00:04:00.999Z,99767.13
2023-03-24T00:06:34.824Z,99769.69
2023-03-24T00:09:04.909Z,99768.00
2023-03-24T00:11:35.665Z,99770.75
2023-03-24T00:14:04.925Z,99770.13
2023-03-24T00:16:34.910Z,99767.47
2023-03-24T00:19:03.732Z,99763.75
2023-03-24T00:21:32.648Z,99768.97
2023-03-24T00:24:02.031Z,99767.25
2023-03-24T00:26:30.860Z,99759.34
2023-03-24T00:29:02.102Z,99756.75
2023-03-24T00:31:30.884Z,99754.06
2023-03-24T00:33:59.774Z,99752.28
2023-03-24T00:36:29.876Z,99746.31
2023-03-24T00:38:59.138Z,99738.38
2023-03-24T00:41:28.979Z,99739.28
2023-03-24T00:44:03.441Z,99734.00
2023-03-24T00:46:33.691Z,99738.28
2023-03-24T00:49:05.965Z,99742.56
2023-03-24T00:51:38.533Z,99728.56
2023-03-24T00:54:09.333Z,99726.75
2023-03-24T00:56:41.093Z,99726.69
2023-03-24T00:59:14.002Z,99718.72
2023-03-24T01:01:43.434Z,99723.09
2023-03-24T01:04:12.414Z,99716.94
2023-03-24T01:06:42.159Z,99720.28
2023-03-24T01:09:12.351Z,99719.25
2023-03-24T01:11:42.448Z,99718.28
2023-03-24T01:14:13.791Z,99713.84
2023-03-24T01:16:43.414Z,99711.09
2023-03-24T01:19:12.665Z,99717.41
2023-03-24T01:21:42.399Z,99704.13
2023-03-24T01:24:13.650Z,99706.72
2023-03-24T01:26:42.821Z,99707.53
2023-03-24T01:29:13.152Z,99696.78
2023-03-24T01:31:42.003Z,99686.91
2023-03-24T01:34:11.014Z,99682.19
2023-03-24T01:36:39.803Z,99672.25
2023-03-24T01:39:08.876Z,99679.13
2023-03-24T01:41:41.185Z,99672.88
2023-03-24T01:44:34.064Z,99674.38
2023-03-24T01:47:07.049Z,99659.25
2023-03-24T01:49:44.146Z,99662.56
2023-03-24T01:52:17.340Z,99660.56
2023-03-24T01:54:51.915Z,99644.38
2023-03-24T01:57:26.071Z,99643.16
2023-03-24T02:00:00.295Z,99641.97
2023-03-24T02:02:58.750Z,99637.25
2023-03-24T02:05:34.426Z,99630.06
2023-03-24T02:08:09.322Z,99631.59
2023-03-24T02:10:39.847Z,99574.44
2023-03-24T02:13:10.376Z,99627.66
2023-03-24T02:15:50.802Z,99626.59
2023-03-24T02:18:27.734Z,99624.75
2023-03-24T02:21:32.165Z,99623.88
2023-03-24T02:24:49.163Z,99627.41
2023-03-24T02:27:36.689Z,99616.69
2023-03-24T02:30:40.414Z,99615.75
2023-03-24T02:33:43.562Z,99605.94
2023-03-24T02:36:36.839Z,99597.84
2023-03-24T02:39:39.372Z,99595.22
2023-03-24T02:42:22.125Z,99587.13
2023-03-24T02:45:08.217Z,99587.84
2023-03-24T02:47:47.346Z,99579.66
2023-03-24T02:50:24.731Z,99586.59
2023-03-24T02:53:06.275Z,99582.97
2023-03-24T02:55:45.253Z,99570.56
2023-03-24T02:58:23.675Z,99549.75
2023-03-24T03:01:04.364Z,99565.84
2023-03-24T03:03:58.588Z,99534.13
2023-03-24T03:06:31.235Z,99557.25
2023-03-24T03:09:04.119Z,99547.50
2023-03-24T03:11:33.321Z,99552.59
2023-03-24T03:14:09.316Z,99548.09
2023-03-24T03:16:45.536Z,99547.09
2023-03-24T03:19:19.600Z,99546.94
2023-03-24T03:21:50.590Z,99553.84
2023-03-24T03:24:26.697Z,99555.47
2023-03-24T03:26:59.910Z,99561.66
2023-03-24T03:29:34.986Z,99559.88
2023-03-24T03:32:07.847Z,99549.19
2023-03-24T03:34:42.204Z,99549.00
2023-03-24T03:37:18.204Z,99554.16
2023-03-24T03:39:51.003Z,99549.09
2023-03-24T03:42:20.467Z,99551.41
2023-03-24T03:44:50.815Z,99549.38
2023-03-24T03:47:21.328Z,99550.97
2023-03-24T03:49:51.716Z,99552.63
2023-03-24T03:52:22.106Z,99546.31
2023-03-24T03:54:54.186Z,99548.09
2023-03-24T03:57:22.940Z,99547.41
2023-03-24T04:00:19.996Z,99544.06
2023-03-24T04:03:46.968Z,99541.72
2023-03-24T04:06:36.132Z,99533.09
2023-03-24T04:09:24.314Z,99538.56
2023-03-24T04:12:06.665Z,99544.00
2023-03-24T04:14:59.617Z,99545.19
2023-03-24T04:17:52.842Z,99542.78
2023-03-24T04:20:49.941Z,99545.53
2023-03-24T04:23:30.326Z,99549.25
2023-03-24T04:26:10.561Z,99542.31
2023-03-24T04:28:49.552Z,99532.75
2023-03-24T04:31:26.028Z,99539.22
2023-03-24T04:34:03.232Z,99527.00
2023-03-24T04:36:42.794Z,99519.09
2023-03-24T04:39:41.885Z,99524.56
2023-03-24T04:42:20.743Z,99514.13
2023-03-24T04:44:51.696Z,99510.78
2023-03-24T04:47:48.872Z,99506.47
2023-03-24T04:50:36.970Z,99503.00
2023-03-24T04:53:10.079Z,99506.59
2023-03-24T04:56:01.855Z,99507.44
2023-03-24T04:59:02.841Z,99505.59
2023-03-24T05:01:32.359Z,99492.41
2023-03-24T05:04:22.908Z,99495.97
2023-03-24T05:06:53.428Z,99490.69
2023-03-24T05:09:27.595Z,99495.06
2023-03-24T05:11:56.326Z,99487.97
2023-03-24T05:14:26.236Z,99494.06
2023-03-24T05:16:55.264Z,99482.59
2023-03-24T05:19:25.799Z,99486.13
2023-03-24T05:21:56.278Z,99486.06
2023-03-24T05:24:25.938Z,99486.75
2023-03-24T05:26:54.669Z,99479.59
2023-03-24T05:29:23.804Z,99486.63
2023-03-24T05:31:52.660Z,99446.28
2023-03-24T05:34:24.025Z,99486.56
2023-03-24T05:36:59.921Z,99488.22
2023-03-24T05:39:28.489Z,99480.13
2023-03-24T05:42:06.422Z,99482.72
2023-03-24T05:44:35.327Z,99486.09
2023-03-24T05:47:07.551Z,99481.56
2023-03-24T05:49:36.726Z,99482.50
2023-03-24T05:52:09.210Z,99491.19
2023-03-24T05:54:40.581Z,99480.44
2023-03-24T05:57:21.297Z,99474.84
2023-03-24T06:00:17.262Z,99468.47
2023-03-24T06:03:17.357Z,99466.41
2023-03-24T06:05:52.770Z,99466.25
2023-03-24T06:08:24.647Z,99454.63
2023-03-24T06:10:53.846Z,99454.56
2023-03-24T06:13:24.087Z,99452.84
2023-03-24T06:15:54.707Z,99442.22
2023-03-24T06:18:53.170Z,99426.16
2023-03-24T06:21:51.536Z,99430.00
2023-03-24T06:24:26.689Z,99431.22
2023-03-24T06:27:02.132Z,99428.84
2023-03-24T06:29:33.258Z,99418.44
2023-03-24T06:32:02.282Z,99425.53
2023-03-24T06:34:33.637Z,99408.81
2023-03-24T06:37:16.672Z,99407.09
2023-03-24T06:39:47.225Z,99375.41
2023-03-24T06:42:18.696Z,99406.03
2023-03-24T06:44:47.910Z,99402.19
2023-03-24T06:47:17.436Z,99395.81
2023-03-24T06:49:47.503Z,99389.84
2023-03-24T06:52:16.426Z,99390.56
2023-03-24T06:54:46.738Z,99395.72
2023-03-24T06:57:16.259Z,99394.56
2023-03-24T07:00:14.738Z,99388.06
2023-03-24T07:02:57.252Z,99384.03
2023-03-24T07:05:26.168Z,99386.00
2023-03-24T07:08:27.730Z,99363.94
2023-03-24T07:10:48.857Z,99377.72
2023-03-24T07:13:17.683Z,99374.69
2023-03-24T07:15:46.686Z,99380.56
2023-03-24T07:18:15.770Z,99375.72
2023-03-24T07:20:51.963Z,99372.38
2023-03-24T07:23:23.061Z,99372.88
2023-03-24T07:26:11.929Z,99367.63
2023-03-24T07:28:50.016Z,99376.31
2023-03-24T07:31:38.209Z,99389.47
2023-03-24T07:34:11.326Z,99380.50
2023-03-24T07:36:41.710Z,99389.00
2023-03-24T07:39:15.320Z,99382.97
2023-03-24T07:41:45.552Z,99376.31
2023-03-24T07:44:25.075Z,99373.56
2023-03-24T07:46:54.844Z,99358.88
2023-03-24T07:49:23.873Z,99370.31
2023-03-24T07:52:06.446Z,99370.78
2023-03-24T07:54:39.219Z,99363.72
2023-03-24T07:57:11.094Z,99366.75
2023-03-24T07:59:40.187Z,99368.03
2023-03-24T08:02:18.338Z,99362.47
2023-03-24T08:05:07.715Z,99359.78
2023-03-24T08:08:00.252Z,99351.50
2023-03-24T08:10:30.859Z,99350.91
2023-03-24T08:13:01.189Z,99337.81
2023-03-24T08:15:30.318Z,99341.66
2023-03-24T08:17:59.065Z,99335.47
2023-03-24T08:20:29.613Z,99337.38
2023-03-24T08:22:58.404Z,99345.25
2023-03-24T08:25:27.841Z,99338.84
2023-03-24T08:27:57.212Z,99340.50
2023-03-24T08:30:29.182Z,99341.06
2023-03-24T08:33:00.419Z,99343.88
2023-03-24T08:35:32.278Z,99342.63
2023-03-24T08:38:06.096Z,99345.31
2023-03-24T08:40:36.781Z,99343.69
2023-03-24T08:43:08.582Z,99343.34
2023-03-24T08:45:39.554Z,99341.03
2023-03-24T08:48:10.605Z,99348.47
2023-03-24T08:50:41.784Z,99351.09
2023-03-24T08:53:12.407Z,99352.16
2023-03-24T08:55:43.187Z,99351.38
2023-03-24T08:58:15.783Z,99360.03
2023-03-24T09:00:47.385Z,99360.44
2023-03-24T09:03:22.497Z,99358.09
2023-03-24T09:05:52.129Z,99366.66
2023-03-24T09:08:21.371Z,99366.16
2023-03-24T09:10:51.252Z,99378.69
2023-03-24T09:13:20.998Z,99372.44
2023-03-24T09:15:53.540Z,99372.09
2023-03-24T09:18:23.599Z,99377.88
2023-03-24T09:20:52.925Z,99376.19
2023-03-24T09:23:22.577Z,99379.56
2023-03-24T09:25:51.990Z,99384.69
2023-03-24T09:28:21.023Z,99382.63
2023-03-24T09:30:51.745Z,99385.06
2023-03-24T09:33:20.842Z,99383.75
2023-03-24T09:35:57.783Z,99382.81
2023-03-24T09:38:29.243Z,99379.53
2023-03-24T09:41:01.580Z,99381.38
2023-03-24T09:43:37.734Z,99392.06
2023-03-24T09:46:12.984Z,99386.78
2023-03-24T09:48:48.230Z,99397.63
2023-03-24T09:51:23.576Z,99393.91
2023-03-24T09:53:59.441Z,99389.25
2023-03-24T09:56:30.606Z,99392.69
2023-03-24T09:59:06.352Z,99382.84
2023-03-24T10:01:37.339Z,99381.38
2023-03-24T10:04:14.462Z,99391.22
2023-03-24T10:06:44.318Z,99389.19
2023-03-24T10:09:24.685Z,99383.06
2023-03-24T10:12:04.534Z,99387.97
2023-03-24T10:14:53.717Z,99386.38
2023-03-24T10:17:37.367Z,99399.19
2023-03-24T10:20:25.356Z,99382.91
2023-03-24T10:23:02.083Z,99379.72
2023-03-24T10:25:47.078Z,99393.41
2023-03-24T10:28:21.964Z,99381.34
2023-03-24T10:30:53.177Z,99392.59
2023-03-24T10:33:23.364Z,99393.25
2023-03-24T10:36:00.220Z,99387.75
2023-03-24T10:38:29.315Z,99398.09
2023-03-24T10:40:58.556Z,99399.25
2023-03-24T10:43:29.139Z,99392.84
2023-03-24T10:46:00.310Z,99389.97
2023-03-24T10:48:45.768Z,99383.97
2023-03-24T10:51:19.545Z,99384.94
2023-03-24T10:53:49.904Z,99396.25
2023-03-24T10:56:20.331Z,99391.59
2023-03-24T10:58:49.572Z,99394.50
2023-03-24T11:01:27.591Z,99399.88
2023-03-24T11:04:05.776Z,99395.47
2023-03-24T11:06:35.808Z,99399.97
2023-03-24T11:09:22.035Z,99395.72
2023-03-24T11:11:52.648Z,99391.34
2023-03-24T11:14:26.585Z,99392.28
2023-03-24T11:17:04.020Z,99402.09
2023-03-24T11:19:37.597Z,99395.56
2023-03-24T11:22:09.074Z,99349.56
2023-03-24T11:24:39.593Z,99401.69
2023-03-24T11:27:16.053Z,99402.66
2023-03-24T11:29:49.588Z,99375.94
2023-03-24T11:32:24.918Z,99400.06
2023-03-24T11:35:02.421Z,99409.06
2023-03-24T11:37:34.181Z,99397.03
2023-03-24T11:40:27.143Z,99405.25
2023-03-24T11:42:59.455Z,99401.56
2023-03-24T11:45:36.168Z,99399.22
2023-03-24T11:48:15.400Z,99405.28
2023-03-24T11:50:47.561Z,99400.81
2023-03-24T11:53:22.407Z,99400.91
2023-03-24T11:55:55.890Z,99396.66
2023-03-24T11:58:36.137Z,99394.81
2023-03-24T12:01:12.713Z,99355.69
2023-03-24T12:04:23.191Z,99381.69
2023-03-24T12:07:07.520Z,99383.16
2023-03-24T12:09:45.111Z,99384.00
2023-03-24T12:12:33.687Z,99373.25
2023-03-24T12:15:27.952Z,99380.19
2023-03-24T12:18:48.903Z,99382.19
2023-03-24T12:21:28.663Z,99374.34
2023-03-24T12:24:06.106Z,99313.53
2023-03-24T12:26:36.335Z,99338.69
2023-03-24T12:29:26.789Z,99361.75
2023-03-24T12:32:37.087Z,99370.84
2023-03-24T12:35:39.984Z,99365.75
2023-03-24T12:38:34.686Z,99290.84
2023-03-24T12:41:37.647Z,99354.13
2023-03-24T12:44:32.366Z,99409.78
2023-03-24T12:47:13.885Z,99406.41
2023-03-24T12:49:58.329Z,99400.41
2023-03-24T12:52:51.152Z,99409.00
2023-03-24T12:55:35.358Z,99407.53
2023-03-24T12:58:13.012Z,99400.06
2023-03-24T13:00:49.472Z,99400.31
2023-03-24T13:03:29.701Z,99399.69
2023-03-24T13:06:16.984Z,99398.53
2023-03-24T13:09:02.802Z,99395.47
2023-03-24T13:11:44.271Z,99385.69
2023-03-24T13:14:21.338Z,99395.66
2023-03-24T13:17:05.287Z,99392.91
2023-03-24T13:19:39.322Z,99388.19
2023-03-24T13:22:17.949Z,99384.56
2023-03-24T13:24:53.301Z,99380.47
2023-03-24T13:27:26.291Z,99375.09
2023-03-24T13:30:27.835Z,99384.56
2023-03-24T13:33:01.886Z,99379.84
2023-03-24T13:35:52.963Z,99376.78
2023-03-24T13:38:33.545Z,99366.50
2023-03-24T13:41:08.056Z,99340.03
2023-03-24T13:43:38.370Z,99378.06
2023-03-24T13:46:14.009Z,99383.22
2023-03-24T13:48:48.429Z,99384.78
2023-03-24T13:51:28.420Z,99391.31
2023-03-24T13:54:01.066Z,99401.44
2023-03-24T13:56:37.473Z,99414.94
2023-03-24T13:59:32.352Z,99409.00
2023-03-24T14:02:43.845Z,99418.97
2023-03-24T14:05:31.848Z,99410.38
2023-03-24T14:08:17.722Z,99409.63
2023-03-24T14:10:50.004Z,99414.19
2023-03-24T14:13:26.181Z,99422.84
2023-03-24T14:15:59.149Z,99429.00
2023-03-24T14:18:46.249Z,99431.66
2023-03-24T14:21:16.737Z,99442.28
2023-03-24T14:23:49.497Z,99449.50
2023-03-24T14:26:35.415Z,99444.38
2023-03-24T14:29:10.869Z,99434.69
2023-03-24T14:31:40.088Z,99429.19
2023-03-24T14:34:17.373Z,99415.94
2023-03-24T14:36:50.270Z,99420.47
2023-03-24T14:39:29.444Z,99425.94
2023-03-24T14:41:59.318Z,99421.88
2023-03-24T14:44:53.891Z,99434.13
2023-03-24T14:47:25.326Z,99435.84
2023-03-24T14:49:58.278Z,99456.63
2023-03-24T14:52:30.079Z,99470.19
2023-03-24T14:55:01.555Z,99478.84
2023-03-24T14:57:32.454Z,99481.84
2023-03-24T15:00:11.850Z,99476.66
2023-03-24T15:02:43.554Z,99483.69
2023-03-24T15:05:26.150Z,99491.00
2023-03-24T15:08:04.679Z,99481.38
2023-03-24T15:10:38.649Z,99482.84
2023-03-24T15:13:08.074Z,99475.25
2023-03-24T15:15:36.871Z,99462.28
2023-03-24T15:18:06.009Z,99467.16
2023-03-24T15:20:38.280Z,99460.63
2023-03-24T15:23:17.339Z,99451.72
2023-03-24T15:25:47.956Z,99446.66
2023-03-24T15:28:23.206Z,99436.91
2023-03-24T15:30:52.387Z,99428.47
2023-03-24T15:33:21.828Z,99417.84
2023-03-24T15:35:59.133Z,99397.69
2023-03-24T15:38:32.320Z,99360.88
2023-03-24T15:41:04.954Z,99352.97
2023-03-24T15:43:33.859Z,99365.38
2023-03-24T15:46:12.533Z,99379.78
2023-03-24T15:48:42.156Z,99384.94
2023-03-24T15:51:13.060Z,99392.09
2023-03-24T15:53:44.812Z,99398.06
2023-03-24T15:56:25.731Z,99403.78
2023-03-24T15:58:58.733Z,99415.19
2023-03-24T16:01:36.422Z,99401.78
2023-03-24T16:04:10.207Z,99417.44
2023-03-24T16:06:43.702Z,99419.06
2023-03-24T16:09:21.849Z,99426.75
2023-03-24T16:11:50.919Z,99405.53
2023-03-24T16:14:24.983Z,99381.75
2023-03-24T16:16:56.086Z,99385.00
2023-03-24T16:19:25.687Z,99397.06
2023-03-24T16:21:56.391Z,99407.53
2023-03-24T16:24:25.465Z,99419.81
2023-03-24T16:26:54.252Z,99425.59
2023-03-24T16:29:24.631Z,99424.44
2023-03-24T16:31:54.595Z,99426.69
2023-03-24T16:34:24.358Z,99406.47
2023-03-24T16:36:56.619Z,99428.44
2023-03-24T16:39:27.278Z,99440.38
2023-03-24T16:41:57.508Z,99438.19
2023-03-24T16:44:26.893Z,99449.94
2023-03-24T16:46:56.627Z,99450.81
2023-03-24T16:49:26.263Z,99450.00
2023-03-24T16:51:56.707Z,99451.00
2023-03-24T16:54:25.482Z,99455.38
2023-03-24T16:56:54.192Z,99469.63
2023-03-24T16:59:23.048Z,99462.94
2023-03-24T17:01:56.360Z,99459.81
2023-03-24T17:04:27.734Z,99470.88
2023-03-24T17:06:57.853Z,99408.56
2023-03-24T17:09:28.545Z,99479.72
2023-03-24T17:11:59.278Z,99482.72
2023-03-24T17:14:30.836Z,99488.41
2023-03-24T17:17:02.911Z,99489.66
2023-03-24T17:19:33.105Z,99490.81
2023-03-24T17:22:05.471Z,99496.53
2023-03-24T17:24:36.667Z,99490.59
2023-03-24T17:27:11.138Z,99500.47
2023-03-24T17:29:40.080Z,99497.28
2023-03-24T17:32:09.437Z,99498.47
2023-03-24T17:34:43.323Z,99501.22
2023-03-24T17:37:13.754Z,99502.25
2023-03-24T17:39:42.754Z,99509.50
2023-03-24T17:42:11.523Z,99506.31
2023-03-24T17:44:40.301Z,99517.16
2023-03-24T17:47:09.192Z,99519.94
2023-03-24T17:49:38.079Z,99513.94
2023-03-24T17:52:06.942Z,99523.78
2023-03-24T17:54:37.271Z,99529.16
2023-03-24T17:57:06.498Z,99523.31
2023-03-24T17:59:37.233Z,99522.59
2023-03-24T18:02:06.325Z,99528.78
2023-03-24T18:04:35.667Z,99535.97
2023-03-24T18:07:04.541Z,99550.16
2023-03-24T18:09:33.885Z,99548.63
2023-03-24T18:12:04.058Z,99545.78
2023-03-24T18:14:32.865Z,99538.41
2023-03-24T18:17:01.805Z,99537.38
2023-03-24T18:19:30.541Z,99539.31
2023-03-24T18:21:59.294Z,99532.47
2023-03-24T18:24:28.135Z,99530.00
2023-03-24T18:26:57.043Z,99533.59
2023-03-24T18:29:27.825Z,99546.88
2023-03-24T18:31:56.953Z,99546.03
2023-03-24T18:34:26.605Z,99543.44
2023-03-24T18:36:56.159Z,99548.69
2023-03-24T18:39:25.308Z,99542.69
2023-03-24T18:41:58.659Z,99538.25
2023-03-24T18:44:29.982Z,99546.31
2023-03-24T18:46:58.904Z,99549.13
2023-03-24T18:49:27.847Z,99557.88
2023-03-24T18:51:56.638Z,99552.53
2023-03-24T18:54:25.650Z,99547.25
2023-03-24T18:56:54.504Z,99548.22
2023-03-24T18:59:23.384Z,99548.97
2023-03-24T19:01:53.460Z,99549.22
2023-03-24T19:04:22.191Z,99540.66
2023-03-24T19:06:50.892Z,99541.81
2023-03-24T19:09:22.214Z,99557.81
2023-03-24T19:11:50.955Z,99537.91
2023-03-24T19:14:19.955Z,99562.28
2023-03-24T19:16:48.765Z,99560.63
2023-03-24T19:19:20.467Z,99554.44
2023-03-24T19:21:49.232Z,99556.31
2023-03-24T19:24:18.380Z,99557.91
2023-03-24T19:26:47.147Z,99559.63
2023-03-24T19:29:15.945Z,99567.63
2023-03-24T19:31:44.975Z,99564.94
2023-03-24T19:34:14.254Z,99562.13
2023-03-24T19:36:49.101Z,99567.41
2023-03-24T19:39:29.448Z,99564.72
2023-03-24T19:41:58.180Z,99562.91
2023-03-24T19:44:27.010Z,99562.09
2023-03-24T19:46:56.068Z,99557.03
2023-03-24T19:49:24.911Z,99553.56
2023-03-24T19:51:54.994Z,99549.34
2023-03-24T19:54:23.762Z,99553.91
2023-03-24T19:56:52.612Z,99557.41
2023-03-24T19:59:21.434Z,99565.25
2023-03-24T20:01:50.334Z,99570.50
2023-03-24T20:04:19.088Z,99568.06
2023-03-24T20:06:47.943Z,99569.78
2023-03-24T20:09:18.068Z,99578.69
2023-03-24T20:11:47.613Z,99576.84
2023-03-24T20:14:18.518Z,99578.75
2023-03-24T20:16:47.224Z,99575.25
2023-03-24T20:19:16.039Z,99568.31
2023-03-24T20:21:44.858Z,99565.88
2023-03-24T20:24:14.945Z,99561.50
2023-03-24T20:26:46.551Z,99559.78
2023-03-24T20:29:16.986Z,99559.91
2023-03-24T20:31:45.875Z,99568.78
2023-03-24T20:34:14.890Z,99568.78
2023-03-24T20:36:43.629Z,99562.75
2023-03-24T20:39:12.377Z,99565.59
2023-03-24T20:41:41.130Z,99569.91
2023-03-24T20:44:11.456Z,99566.53
2023-03-24T20:46:40.292Z,99575.25
2023-03-24T20:49:14.053Z,99562.19
2023-03-24T20:51:42.827Z,99563.94
2023-03-24T20:54:11.781Z,99573.56
2023-03-24T20:56:40.601Z,99579.69
2023-03-24T20:59:10.826Z,99583.91
2023-03-24T21:01:42.089Z,99584.47
2023-03-24T21:04:11.398Z,99589.44
2023-03-24T21:06:40.223Z,99589.78
2023-03-24T21:09:09.079Z,99593.75
2023-03-24T21:11:37.966Z,99593.50
2023-03-24T21:14:06.716Z,99595.00
2023-03-24T21:16:37.641Z,99596.56
2023-03-24T21:19:06.711Z,99600.72
2023-03-24T21:21:38.265Z,99602.22
2023-03-24T21:24:07.284Z,99604.56
2023-03-24T21:26:36.544Z,99608.75
2023-03-24T21:29:06.860Z,99600.66
2023-03-24T21:31:37.023Z,99602.28
2023-03-24T21:34:08.092Z,99597.72
2023-03-24T21:36:38.545Z,99588.78
2023-03-24T21:39:09.291Z,99598.31
2023-03-24T21:41:38.968Z,99592.06
2023-03-24T21:44:09.450Z,99576.13
2023-03-24T21:46:39.578Z,99596.31
2023-03-24T21:49:11.120Z,99590.03
2023-03-24T21:51:42.852Z,99584.63
2023-03-24T21:54:14.832Z,99587.19
2023-03-24T21:56:43.630Z,99601.16
2023-03-24T21:59:13.011Z,99592.25
2023-03-24T22:01:43.128Z,99590.44
2023-03-24T22:04:13.453Z,99585.09
2023-03-24T22:06:42.196Z,99590.44
2023-03-24T22:09:11.287Z,99600.13
2023-03-24T22:11:42.770Z,99608.88
2023-03-24T22:14:12.659Z,99617.66
2023-03-24T22:16:42.784Z,99608.91
2023-03-24T22:19:11.517Z,99614.19
2023-03-24T22:21:40.233Z,99610.72
2023-03-24T22:24:09.136Z,99612.47
2023-03-24T22:26:37.859Z,99619.47
2023-03-24T22:29:06.575Z,99622.13
2023-03-24T22:31:35.406Z,99632.94
2023-03-24T22:34:05.435Z,99636.75
2023-03-24T22:36:34.179Z,99629.09
2023-03-24T22:39:02.910Z,99609.06
2023-03-24T22:41:31.611Z,99615.25
2023-03-24T22:44:00.313Z,99602.03
2023-03-24T22:46:29.101Z,99591.44
2023-03-24T22:48:57.807Z,99579.88
2023-03-24T22:51:28.781Z,99593.13
2023-03-24T22:53:57.779Z,99616.91
2023-03-24T22:56:26.550Z,99622.03
2023-03-24T22:58:55.607Z,99628.94
2023-03-24T23:01:24.231Z,99628.84
2023-03-24T23:03:53.044Z,99628.81
2023-03-24T23:06:21.850Z,99615.66
2023-03-24T23:08:53.467Z,99628.81
2023-03-24T23:11:22.332Z,99628.00
2023-03-24T23:13:52.306Z,99622.75
2023-03-24T23:16:21.655Z,99629.88
2023-03-24T23:18:51.661Z,99635.16
2023-03-24T23:21:20.435Z,99633.34
2023-03-24T23:23:49.324Z,99628.06
2023-03-24T23:26:26.085Z,99620.22
2023-03-24T23:28:55.936Z,99622.91
2023-03-24T23:31:27.330Z,99625.56
2023-03-24T23:33:58.102Z,99616.75
2023-03-24T23:36:28.451Z,99629.06
2023-03-24T23:38:57.532Z,99632.56
2023-03-24T23:41:27.693Z,99628.94
2023-03-24T23:43:56.839Z,99620.88
2023-03-24T23:46:25.953Z,99620.88
2023-03-24T23:48:55.023Z,99625.44
2023-03-24T23:51:26.120Z,99625.69
2023-03-24T23:53:55.702Z,99621.31
2023-03-24T23:56:24.421Z,99621.25
2023-03-24T23:58:54.177Z,99594.25
